EGYM METAR and TAF | Updated Today

EGYM METAR

RAF Marham

Observation time: 20 min. ago

EGYM 061820Z 22002KT CAVOK 03/01 Q1039 BECMG 5000 BR RMK BLU BECMG WHT

Need help? Read our tutorial on how to read METARs or read the parsed version below.

RAF Marham (EGYM) METAR

  • Weather conditions on Mon, 06 Feb 2023 18:20:00 +0000 (20 min. ago):
  • Present conditions: Dry
  • Clouds: Clear skies
  • Visibility: Greater than 10 km
  • Wind: 220 degrees at 2 knots
  • Temperature: 3 celsius
  • Dew point: 1 celsius
  • Pressure: 1039 millibars
  • Remarks: BLU BECMG WHT


Useful to know...

EGYM TAF

RAF Marham

TAF EGYM 061632Z 0618/0621 25005KT 9000 BR SKC BECMG 0618/0620 15004KT 5000 PROB30 0619/0621 3000
Observation time: 2:08 hr. ago
Need help? Read our tutorial on how to read TAFs or read the parsed version below.

Parsed version of TAF for RAF Marham (EGYM)

  • From 06 February at 18:00 UTC, to day 06 of the month at 21:00 UTC
  • Clouds: No significant changes expected
  • Visibility: 9000 meters
  • Wind: 250 degrees at 5
  • Other: Mist
  • Expected to arise soon, from 06 February at 18:00 UTC, to day 06 of the month at 20:00 UTC
  • Visibility: 5000 meters
  • Wind: 150 degrees at 4
  • From 06 February at 19:00 UTC, to day 06 of the month at 21:00 UTC
    Probability of 30%
  • Visibility: 3000 meters